Dati Storici

Data ora Umidita' aria (%) Temperatura aria (°C) Rad globale (W/m²) Gonioanemometro (°) Tacoanemometro (m/s) Pioggia (mm)
01-11-2012 18:50 83.9 % 11.918 1.828 224.233 0.876 0
01-11-2012 18:40 82.3 % 12.121 1.97 141.65 2.244 0
01-11-2012 18:30 81 % 12.263 1.7 228.873 1.368 0
01-11-2012 18:20 80.2 % 12.486 1.88 158.355 0.915 0
01-11-2012 18:10 79.3 % 12.368 2.842 222.35 0.642 0
01-11-2012 18:00 79 % 12.495 4.252 217.821 1.381 0
01-11-2012 17:50 78 % 12.606 7.302 162.82 1.33 0
01-11-2012 17:40 76.3 % 13.047 13.736 224.409 0.671 0
01-11-2012 17:30 75.8 % 13.28 22.934 220.429 0.91 0
01-11-2012 17:20 75.1 % 13.649 54.089 257.528 1.546 0
01-11-2012 17:10 76.3 % 13.574 74.229 249.925 3.027 0
01-11-2012 17:00 76.7 % 13.305 39.041 205.752 1.433 0
01-11-2012 16:50 75.6 % 13.264 120.618 220.467 2.69 0
01-11-2012 16:40 75.4 % 13.329 68.941 238.747 1.313 0
01-11-2012 16:30 74.9 % 14.224 98.893 202.484 1.083 0
01-11-2012 16:20 75 % 13.894 234.77 298.065 2.064 0
01-11-2012 16:10 76.7 % 13.95 309.012 227.56 1.28 0
01-11-2012 16:00 79.8 % 12.85 91.023 207.411 2.611 0
01-11-2012 15:50 80.2 % 12.695 141.514 173.379 2.931 0
01-11-2012 15:40 79.8 % 12.491 51.45 224.522 1.296 0

I dati sono presentati in modo automatico a scopo informativo. In seguito a verifica i dati possono subire modifiche o essere invalidati e non riportati negli archivi definitivi.